Time;durP1;ratioP1;P1;durP2;ratioP2;P2;SDS_P1;SDS_P2;PMS_P1;PMS_P2;Temp;Humidity;BMP_temperature;BMP_pressure;BME280_temperature;BME280_humidity;BME280_pressure;Samples;Min_cycle;Max_cycle;Signal;HPM_P1;HPM_P2
2022/11/02 00:00:27;;;;;;;0.10;0.10;;;;;;;12.98;86.71;101344.84;5001042;28;20033;-69
2022/11/02 00:02:53;;;;;;;0.10;0.10;;;;;;;12.85;87.14;101338.72;4986366;28;20021;-71
2022/11/02 00:05:23;;;;;;;0.10;0.10;;;;;;;12.65;88.15;101300.78;5001117;28;20056;-72
2022/11/02 00:07:50;;;;;;;0.10;0.10;;;;;;;12.90;87.80;101320.38;5003671;28;20050;-71
2022/11/02 00:10:15;;;;;;;0.00;0.00;;;;;;;12.97;87.25;101312.63;5005709;28;20029;-75
2022/11/02 00:12:40;;;;;;;0.10;0.10;;;;;;;12.55;88.07;101281.78;5025158;28;20586;-71
2022/11/02 00:15:06;;;;;;;0.10;0.10;;;;;;;12.97;87.24;101302.72;5012386;28;20040;-72
2022/11/02 00:17:33;;;;;;;0.10;0.10;;;;;;;13.04;86.62;101314.72;5025404;28;20025;-73
2022/11/02 00:19:58;;;;;;;0.10;0.10;;;;;;;12.67;87.73;101284.47;5029417;28;20053;-71
2022/11/02 00:22:24;;;;;;;0.10;0.10;;;;;;;13.09;86.92;101316.19;5008846;28;20025;-72
2022/11/02 00:24:49;;;;;;;0.10;0.10;;;;;;;13.10;86.44;101318.75;5024627;28;20396;-71
2022/11/02 00:27:14;;;;;;;0.10;0.10;;;;;;;12.79;87.45;101291.59;5028668;28;20140;-71
2022/11/02 00:29:40;;;;;;;0.10;0.10;;;;;;;12.97;87.71;101309.94;5027063;28;20025;-72
2022/11/02 00:32:05;;;;;;;0.10;0.10;;;;;;;13.13;87.12;101315.78;5008570;28;21983;-73
2022/11/02 00:34:30;;;;;;;0.10;0.10;;;;;;;13.10;87.61;101323.28;5028270;28;20036;-71
2022/11/02 00:36:56;;;;;;;0.10;0.10;;;;;;;13.14;86.75;101305.88;5012142;28;20102;-72
2022/11/02 00:39:21;;;;;;;0.10;0.10;;;;;;;13.13;87.52;101318.50;5025020;28;20202;-71
2022/11/02 00:41:46;;;;;;;0.10;0.10;;;;;;;12.92;88.38;101312.13;5021794;28;20036;-75
2022/11/02 00:44:11;;;;;;;0.00;0.00;;;;;;;13.04;87.58;101305.78;5009547;28;20024;-72
2022/11/02 00:46:37;;;;;;;0.10;0.10;;;;;;;13.08;87.89;101317.16;5025870;28;20025;-74
2022/11/02 00:49:02;;;;;;;0.00;0.00;;;;;;;13.08;87.57;101315.34;5028038;28;20554;-70
2022/11/02 00:51:27;;;;;;;0.10;0.10;;;;;;;13.01;87.75;101312.25;5020260;28;20030;-73
2022/11/02 00:53:53;;;;;;;0.10;0.10;;;;;;;12.79;88.68;101304.19;5025319;28;20044;-72
2022/11/02 00:56:18;;;;;;;0.00;0.00;;;;;;;12.98;87.67;101319.75;5011389;28;20021;-73
2022/11/02 00:58:43;;;;;;;0.10;0.10;;;;;;;12.99;87.14;101321.47;5024720;28;20021;-73
2022/11/02 01:01:09;;;;;;;0.10;0.10;;;;;;;12.94;87.64;101319.16;5023569;28;20033;-71
2022/11/02 01:03:34;;;;;;;0.10;0.10;;;;;;;13.44;84.48;101324.09;5021081;28;20076;-73
2022/11/02 01:06:07;;;;;;;0.10;0.10;;;;;;;13.44;84.19;101342.16;5022432;28;20037;-75
2022/11/02 01:08:32;;;;;;;0.10;0.10;;;;;;;13.37;83.68;101335.50;5025565;28;20065;-73
2022/11/02 01:11:11;;;;;;;0.10;0.10;;;;;;;13.46;83.62;101332.09;5016563;28;20092;-76
2022/11/02 01:13:36;;;;;;;0.10;0.10;;;;;;;13.41;84.32;101340.53;5018987;28;20029;-74
2022/11/02 01:16:03;;;;;;;0.10;0.10;;;;;;;13.47;83.59;101329.25;5022643;28;20439;-72
2022/11/02 01:18:28;;;;;;;0.00;0.00;;;;;;;13.22;83.65;101314.22;5022498;28;20029;-74
2022/11/02 01:20:58;;;;;;;0.10;0.10;;;;;;;13.13;84.62;101325.75;5002157;28;20032;-75
2022/11/02 01:23:23;;;;;;;0.00;0.00;;;;;;;13.06;84.27;101333.47;5002625;28;20021;-74
2022/11/02 01:25:48;;;;;;;0.00;0.00;;;;;;;13.27;82.32;101348.88;4982063;28;20558;-74
2022/11/02 01:28:14;;;;;;;0.10;0.10;;;;;;;13.08;82.28;101333.34;5018670;28;20029;-73
2022/11/02 01:30:39;;;;;;;0.10;0.10;;;;;;;13.03;82.85;101325.63;4988236;28;20061;-77
2022/11/02 01:33:05;;;;;;;0.00;0.00;;;;;;;13.17;82.21;101346.91;5003012;28;20389;-74
2022/11/02 01:35:30;;;;;;;0.10;0.10;;;;;;;13.18;81.30;101347.78;4999645;28;20117;-72
2022/11/02 01:37:56;;;;;;;0.00;0.00;;;;;;;13.16;81.43;101355.16;5022726;28;20406;-75
2022/11/02 01:40:21;;;;;;;0.10;0.10;;;;;;;13.15;80.74;101348.03;5022868;28;20033;-74
2022/11/02 01:42:46;;;;;;;0.00;0.00;;;;;;;12.78;81.12;101341.06;5016978;28;20033;-75
2022/11/02 01:45:12;;;;;;;0.10;0.10;;;;;;;12.89;80.37;101349.13;5002125;28;20539;-73
2022/11/02 01:47:41;;;;;;;0.10;0.10;;;;;;;12.94;80.61;101359.56;5004432;28;20408;-74
2022/11/02 01:50:10;;;;;;;0.05;0.05;;;;;;;13.06;79.12;101368.50;5003830;28;20031;-75
2022/11/02 01:52:36;;;;;;;0.10;0.10;;;;;;;12.89;79.56;101377.94;5021704;28;20809;-75
2022/11/02 01:55:26;;;;;;;0.00;0.00;;;;;;;12.97;79.80;101369.25;4985354;28;20025;-73
2022/11/02 01:57:55;;;;;;;0.10;0.10;;;;;;;12.87;78.65;101351.09;5017628;28;20077;-73
2022/11/02 02:00:20;;;;;;;0.10;0.10;;;;;;;12.87;79.28;101359.19;4987593;28;20354;-77
2022/11/02 02:02:51;;;;;;;0.10;0.10;;;;;;;12.90;79.03;101369.72;4990944;28;20361;-75
2022/11/02 02:05:17;;;;;;;0.10;0.10;;;;;;;12.78;78.49;101345.59;4991564;28;20026;-75
2022/11/02 02:07:43;;;;;;;0.10;0.10;;;;;;;12.77;78.71;101346.56;5003116;28;20048;-75
2022/11/02 02:10:08;;;;;;;0.10;0.10;;;;;;;12.67;79.80;101357.22;4992279;28;20502;-75
2022/11/02 02:12:35;;;;;;;0.08;0.08;;;;;;;12.80;79.69;101379.53;5003955;28;20033;-72
2022/11/02 02:15:00;;;;;;;0.00;0.00;;;;;;;12.74;79.93;101369.22;5006649;28;20032;-74
2022/11/02 02:17:30;;;;;;;0.03;0.03;;;;;;;12.73;80.45;101381.81;5019769;28;20090;-72
2022/11/02 02:20:16;;;;;;;0.00;0.00;;;;;;;12.78;80.43;101370.72;5020205;28;20047;-75
2022/11/02 02:22:55;;;;;;;0.10;0.10;;;;;;;12.52;81.33;101376.31;4988975;28;20620;-77
2022/11/02 02:25:51;;;;;;;0.10;0.10;;;;;;;12.40;87.16;101379.94;5004989;28;20056;-76
2022/11/02 02:28:39;;;;;;;0.10;0.10;;;;;;;12.08;91.52;101381.41;4983399;28;20104;-74
2022/11/02 02:31:11;;;;;;;0.10;0.10;;;;;;;11.97;92.61;101365.19;5020321;28;20017;-75
2022/11/02 02:34:04;;;;;;;0.10;0.10;;;;;;;11.78;92.79;101358.50;5021709;28;20056;-76
2022/11/02 02:36:48;;;;;;;0.10;0.10;;;;;;;11.73;92.60;101366.06;5019326;28;20473;-76
2022/11/02 02:39:33;;;;;;;0.05;0.05;;;;;;;11.90;90.55;101380.94;4993307;28;20052;-73
2022/11/02 02:42:00;;;;;;;0.10;0.10;;;;;;;11.90;90.29;101383.63;5022201;28;20464;-74
2022/11/02 02:44:30;;;;;;;0.10;0.10;;;;;;;11.84;89.56;101371.50;5004315;28;20033;-74
2022/11/02 02:46:58;;;;;;;0.10;0.10;;;;;;;11.82;88.97;101388.72;5002078;28;20040;-73
2022/11/02 02:50:01;;;;;;;0.10;0.10;;;;;;;11.89;88.12;101389.13;5004697;28;20032;-74
2022/11/02 02:52:27;;;;;;;0.08;0.08;;;;;;;11.83;88.23;101368.91;4998733;28;20026;-74
2022/11/02 02:54:54;;;;;;;0.10;0.10;;;;;;;11.90;88.23;101377.41;5020447;28;20471;-75
2022/11/02 02:57:22;;;;;;;0.10;0.10;;;;;;;11.88;87.47;101380.19;5016591;28;20075;-77
2022/11/02 02:59:48;;;;;;;0.00;0.00;;;;;;;11.90;86.54;101372.88;5020987;28;20021;-74
2022/11/02 03:02:27;;;;;;;0.10;0.10;;;;;;;11.85;88.37;101381.28;5000903;28;20491;-73
2022/11/02 03:04:52;;;;;;;0.10;0.10;;;;;;;11.75;87.79;101385.63;5000110;28;20032;-73
2022/11/02 03:07:21;;;;;;;0.10;0.10;;;;;;;11.69;87.74;101380.69;4999996;28;20037;-75
2022/11/02 03:09:51;;;;;;;0.10;0.10;;;;;;;11.88;87.28;101401.72;5017757;28;20029;-75
2022/11/02 03:12:44;;;;;;;0.10;0.10;;;;;;;11.82;87.60;101386.91;5002642;28;20145;-74
2022/11/02 03:15:27;;;;;;;0.10;0.10;;;;;;;11.79;87.23;101376.38;5003637;28;20033;-75
2022/11/02 03:18:21;;;;;;;0.10;0.10;;;;;;;11.59;88.37;101363.53;5018734;28;20083;-73
2022/11/02 03:20:57;;;;;;;0.10;0.10;;;;;;;11.70;88.35;101395.88;5003966;28;20102;-73
2022/11/02 03:23:36;;;;;;;0.10;0.10;;;;;;;11.47;89.15;101384.97;5017591;28;20026;-76
2022/11/02 03:26:11;;;;;;;0.10;0.10;;;;;;;11.66;89.01;101397.94;4997484;28;20072;-74
2022/11/02 03:28:45;;;;;;;0.10;0.10;;;;;;;11.72;88.28;101396.63;5001546;28;20037;-76
2022/11/02 03:31:16;;;;;;;0.10;0.10;;;;;;;11.57;89.42;101395.91;5002423;28;20029;-77
2022/11/02 03:33:50;;;;;;;0.10;0.10;;;;;;;11.58;89.04;101407.53;5018144;28;20473;-76
2022/11/02 03:36:21;;;;;;;0.10;0.10;;;;;;;11.44;89.77;101384.34;5005269;28;20034;-74
2022/11/02 03:38:50;;;;;;;0.10;0.10;;;;;;;11.52;89.15;101401.63;5006883;28;20124;-74
2022/11/02 03:41:18;;;;;;;0.10;0.10;;;;;;;11.61;88.46;101408.16;5000142;28;20034;-76
2022/11/02 03:43:45;;;;;;;0.10;0.10;;;;;;;11.61;87.58;101385.81;5005625;28;20110;-75
2022/11/02 03:46:11;;;;;;;0.10;0.10;;;;;;;11.47;88.88;101389.50;5008669;28;20029;-76
2022/11/02 03:48:40;;;;;;;0.10;0.10;;;;;;;11.64;87.79;101412.47;5002481;28;20026;-75
2022/11/02 03:51:09;;;;;;;0.10;0.10;;;;;;;11.44;87.41;101376.28;5002162;28;20026;-75
2022/11/02 03:53:57;;;;;;;0.10;0.10;;;;;;;11.76;86.58;101416.94;5003001;28;20035;-78
2022/11/02 03:56:34;;;;;;;0.10;0.10;;;;;;;11.79;86.59;101405.09;5006719;28;20299;-74
2022/11/02 03:58:59;;;;;;;0.10;0.10;;;;;;;11.72;85.84;101411.91;5002931;28;20086;-76
2022/11/02 04:01:26;;;;;;;0.13;0.13;;;;;;;11.62;86.23;101414.41;5002387;28;20128;-77
2022/11/02 04:03:51;;;;;;;0.10;0.10;;;;;;;11.58;86.59;101396.78;5016473;28;20060;-76
2022/11/02 04:06:17;;;;;;;0.10;0.10;;;;;;;11.37;86.42;101390.16;5001849;28;20492;-72
2022/11/02 04:08:44;;;;;;;0.10;0.10;;;;;;;11.69;86.21;101434.50;5015526;28;20061;-73
2022/11/02 04:16:38;;;;;;;0.10;0.10;;;;;;;11.50;86.56;101443.06;5021735;28;20044;-75
2022/11/02 04:27:17;;;;;;;0.10;0.10;;;;;;;11.60;85.47;101430.66;5005024;28;20048;-74
2022/11/02 04:29:42;;;;;;;0.10;0.10;;;;;;;11.82;85.18;101459.53;5009712;28;20034;-74
2022/11/02 04:32:07;;;;;;;0.10;0.10;;;;;;;11.65;85.79;101446.47;5005274;28;20107;-76
2022/11/02 04:34:35;;;;;;;0.10;0.10;;;;;;;11.84;85.59;101460.28;5007043;28;20366;-74
2022/11/02 04:38:39;;;;;;;0.10;0.10;;;;;;;11.73;85.68;101462.88;5011871;28;20528;-78
2022/11/02 04:39:46;;;;;;;0.10;0.10;;;;;;;11.77;85.69;101461.69;5005110;28;20429;-74
2022/11/02 04:42:12;;;;;;;0.10;0.10;;;;;;;11.69;85.98;101475.72;4988448;28;20025;-73
2022/11/02 04:44:37;;;;;;;0.10;0.10;;;;;;;11.44;86.57;101436.28;5001662;28;20077;-76
2022/11/02 04:47:03;;;;;;;0.10;0.10;;;;;;;11.76;86.31;101481.50;5001463;28;20033;-74
2022/11/02 04:49:28;;;;;;;0.10;0.10;;;;;;;11.74;86.91;101487.97;5005190;28;20107;-76
2022/11/02 04:51:53;;;;;;;0.10;0.10;;;;;;;11.84;86.18;101494.38;5008824;28;20021;-71
2022/11/02 04:54:19;;;;;;;0.10;0.10;;;;;;;11.78;85.83;101476.03;5023020;28;20069;-75
2022/11/02 04:56:44;;;;;;;0.10;0.10;;;;;;;11.85;86.50;101504.19;5008319;28;20083;-74
2022/11/02 04:59:09;;;;;;;0.17;0.10;;;;;;;11.87;86.08;101493.31;5009914;28;20029;-75
2022/11/02 05:01:35;;;;;;;0.10;0.10;;;;;;;11.85;86.43;101493.41;5004528;28;20025;-74
2022/11/02 05:04:00;;;;;;;0.10;0.10;;;;;;;11.77;86.69;101495.84;5005650;28;20072;-75
2022/11/02 05:06:25;;;;;;;0.10;0.10;;;;;;;11.81;86.60;101500.88;5022563;28;20116;-78
2022/11/02 05:08:51;;;;;;;0.10;0.10;;;;;;;11.81;86.79;101522.38;4988799;28;20029;-73
2022/11/02 05:11:16;;;;;;;0.10;0.10;;;;;;;11.87;86.73;101522.94;5017063;28;20048;-73
2022/11/02 05:13:43;;;;;;;0.10;0.10;;;;;;;11.84;85.97;101537.44;5004155;28;20037;-73
2022/11/02 05:16:11;;;;;;;0.10;0.10;;;;;;;11.66;86.39;101515.41;5003715;28;20025;-74
2022/11/02 05:18:37;;;;;;;0.10;0.10;;;;;;;11.71;87.25;101521.31;5001333;28;21927;-73
2022/11/02 05:21:02;;;;;;;0.10;0.10;;;;;;;11.66;86.72;101529.72;4982377;28;22041;-78
2022/11/02 05:23:28;;;;;;;0.17;0.17;;;;;;;11.84;85.64;101530.25;5003476;28;20295;-74
2022/11/02 05:25:59;;;;;;;0.10;0.10;;;;;;;12.08;84.62;101547.41;5004099;28;20025;-74
2022/11/02 05:28:25;;;;;;;0.10;0.10;;;;;;;11.97;85.17;101558.94;4999521;28;20076;-74
2022/11/02 05:30:50;;;;;;;0.10;0.10;;;;;;;11.98;84.83;101553.47;4984666;28;20528;-74
2022/11/02 05:33:16;;;;;;;0.10;0.10;;;;;;;11.84;85.35;101549.06;4986958;28;20033;-77
2022/11/02 05:35:42;;;;;;;0.10;0.10;;;;;;;11.78;86.76;101568.34;5005817;28;20034;-74
2022/11/02 05:38:07;;;;;;;0.10;0.10;;;;;;;11.77;85.71;101569.31;4988744;28;20044;-74
2022/11/02 05:40:32;;;;;;;0.10;0.10;;;;;;;11.79;85.09;101578.13;4997537;28;20497;-73
2022/11/02 05:42:59;;;;;;;0.10;0.10;;;;;;;11.92;84.42;101572.75;5000099;28;20056;-73
2022/11/02 05:45:25;;;;;;;0.10;0.10;;;;;;;11.85;84.58;101566.06;5008525;28;20040;-75
2022/11/02 05:47:50;;;;;;;0.10;0.10;;;;;;;11.73;84.39;101559.75;5002674;28;20025;-74
2022/11/02 05:50:15;;;;;;;0.10;0.10;;;;;;;11.76;85.17;101593.66;4996352;28;20125;-74
2022/11/02 05:52:40;;;;;;;0.10;0.10;;;;;;;11.51;86.15;101572.03;5015068;28;20029;-74
2022/11/02 05:55:06;;;;;;;0.15;0.15;;;;;;;11.48;86.48;101574.06;5024254;28;20443;-76
2022/11/02 05:57:31;;;;;;;0.10;0.10;;;;;;;11.65;86.20;101602.47;4997132;28;20025;-74
2022/11/02 05:59:57;;;;;;;0.20;0.20;;;;;;;11.65;85.83;101583.66;5023371;28;20037;-72
2022/11/02 06:02:22;;;;;;;0.10;0.10;;;;;;;11.50;85.47;101567.59;5000575;28;20075;-74
2022/11/02 06:04:47;;;;;;;0.10;0.10;;;;;;;11.58;85.55;101590.44;5006787;28;20079;-74
2022/11/02 06:07:13;;;;;;;0.10;0.10;;;;;;;11.52;86.38;101614.09;5001420;28;20041;-72
2022/11/02 06:09:38;;;;;;;0.10;0.10;;;;;;;11.29;86.74;101599.53;5005732;28;20357;-74
2022/11/02 06:12:03;;;;;;;0.10;0.10;;;;;;;11.50;86.86;101624.09;5006209;28;20051;-74
2022/11/02 06:14:29;;;;;;;0.10;0.10;;;;;;;11.28;88.33;101626.53;5008321;28;20504;-71
2022/11/02 06:16:54;;;;;;;0.10;0.10;;;;;;;11.16;88.65;101614.78;4993180;28;20044;-75
2022/11/02 06:19:19;;;;;;;0.10;0.10;;;;;;;11.15;88.09;101613.06;5006930;28;20076;-75
2022/11/02 06:21:44;;;;;;;0.10;0.10;;;;;;;10.95;88.56;101596.47;5019485;28;20503;-73
2022/11/02 06:24:10;;;;;;;0.10;0.10;;;;;;;11.20;88.82;101643.19;5003496;28;20036;-72
2022/11/02 06:26:35;;;;;;;0.10;0.10;;;;;;;10.94;88.73;101627.84;5003906;28;20132;-74
2022/11/02 06:29:00;;;;;;;0.10;0.10;;;;;;;11.15;88.50;101648.00;4990930;28;20080;-74
2022/11/02 06:31:26;;;;;;;0.10;0.10;;;;;;;11.05;88.97;101663.91;4987102;28;20445;-76
2022/11/02 06:33:51;;;;;;;0.10;0.10;;;;;;;11.01;89.05;101660.53;5005264;28;20021;-75
2022/11/02 06:36:16;;;;;;;0.10;0.10;;;;;;;11.08;88.61;101677.13;5007907;28;20139;-73
2022/11/02 06:38:42;;;;;;;0.10;0.10;;;;;;;10.88;89.36;101656.94;4987612;28;20544;-76
2022/11/02 06:41:08;;;;;;;0.10;0.10;;;;;;;10.92;89.46;101672.75;4988489;28;20056;-72
2022/11/02 06:43:36;;;;;;;0.10;0.10;;;;;;;10.83;89.75;101678.75;5014945;28;20591;-74
2022/11/02 06:46:02;;;;;;;0.10;0.10;;;;;;;10.86;89.36;101675.00;5018488;28;20029;-72
2022/11/02 06:48:28;;;;;;;0.10;0.10;;;;;;;10.83;90.49;101696.69;5010093;28;20519;-74
2022/11/02 06:50:53;;;;;;;0.10;0.10;;;;;;;10.77;90.26;101695.25;5010653;28;20029;-74
2022/11/02 06:53:18;;;;;;;0.10;0.10;;;;;;;10.65;91.57;101711.19;4987621;28;20373;-77
2022/11/02 06:55:44;;;;;;;0.10;0.10;;;;;;;10.80;91.56;101728.16;4988044;28;20558;-73
2022/11/02 06:58:09;;;;;;;0.10;0.10;;;;;;;10.74;91.45;101728.53;4989390;28;20029;-75
2022/11/02 07:00:34;;;;;;;0.10;0.10;;;;;;;10.70;92.11;101742.28;5018617;28;20030;-73
2022/11/02 07:03:07;;;;;;;0.10;0.10;;;;;;;10.65;92.08;101759.53;5003323;28;20118;-77
2022/11/02 07:05:33;;;;;;;0.10;0.10;;;;;;;10.56;92.15;101732.41;4999333;28;20052;-73
2022/11/02 07:07:59;;;;;;;0.10;0.10;;;;;;;10.53;92.31;101746.91;5012469;28;20033;-73
2022/11/02 07:10:25;;;;;;;0.10;0.10;;;;;;;10.64;92.78;101759.66;5006183;28;20041;-72
2022/11/02 07:12:52;;;;;;;0.10;0.10;;;;;;;10.80;92.42;101760.38;5005630;28;20099;-74
2022/11/02 07:15:18;;;;;;;0.10;0.10;;;;;;;10.68;92.70;101755.81;4989123;28;20337;-73
2022/11/02 07:17:43;;;;;;;0.10;0.10;;;;;;;10.81;92.59;101782.75;4997329;28;20456;-72
2022/11/02 07:20:09;;;;;;;0.10;0.10;;;;;;;10.76;92.38;101783.03;5005276;28;20446;-75
2022/11/02 07:22:35;;;;;;;0.10;0.10;;;;;;;10.69;92.60;101773.66;5022957;28;20120;-76
2022/11/02 07:25:00;;;;;;;0.00;0.00;;;;;;;10.78;92.36;101783.78;4986327;28;20029;-73
2022/11/02 07:27:25;;;;;;;0.10;0.10;;;;;;;10.94;91.27;101817.75;5013753;28;20037;-75
2022/11/02 07:29:51;;;;;;;0.10;0.10;;;;;;;10.73;91.32;101777.00;5004595;28;20454;-75
2022/11/02 07:32:16;;;;;;;0.10;0.10;;;;;;;11.07;91.17;101807.94;5005921;28;20072;-78
2022/11/02 07:34:41;;;;;;;0.10;0.10;;;;;;;11.05;90.84;101785.66;5022098;28;20033;-76
2022/11/02 07:37:07;;;;;;;0.10;0.10;;;;;;;11.07;90.67;101816.00;4990415;28;20033;-75
2022/11/02 07:39:32;;;;;;;0.10;0.10;;;;;;;11.04;90.27;101800.06;5026044;28;20531;-74
2022/11/02 07:41:57;;;;;;;0.10;0.10;;;;;;;11.15;89.67;101820.88;5007151;28;20040;-75
2022/11/02 07:44:22;;;;;;;0.10;0.10;;;;;;;10.93;89.96;101803.44;5006059;28;20037;-74
2022/11/02 07:46:48;;;;;;;0.10;0.10;;;;;;;11.03;90.00;101817.16;5009402;28;20104;-75
2022/11/02 07:49:13;;;;;;;0.10;0.10;;;;;;;10.91;89.47;101800.00;5009767;28;20031;-75
2022/11/02 07:51:38;;;;;;;0.10;0.10;;;;;;;10.97;90.10;101822.06;5006822;28;20021;-76
2022/11/02 07:54:04;;;;;;;0.20;0.20;;;;;;;10.98;89.26;101813.03;4991961;28;20464;-76
2022/11/02 07:56:29;;;;;;;0.10;0.10;;;;;;;10.98;88.98;101821.97;5007012;28;20030;-74
2022/11/02 07:58:54;;;;;;;0.10;0.10;;;;;;;11.16;89.23;101825.28;5007993;28;20393;-75
2022/11/02 08:01:19;;;;;;;0.10;0.10;;;;;;;11.17;88.98;101831.53;5023094;28;20061;-76
2022/11/02 08:03:45;;;;;;;0.10;0.10;;;;;;;11.38;88.34;101853.50;5008524;28;20039;-74
2022/11/02 08:06:10;;;;;;;0.10;0.10;;;;;;;11.25;88.50;101842.66;5007695;28;20029;-74
2022/11/02 08:08:35;;;;;;;0.10;0.10;;;;;;;11.29;88.78;101849.56;4992182;28;20071;-74
2022/11/02 08:11:05;;;;;;;0.10;0.10;;;;;;;11.09;89.34;101837.41;4995385;28;20053;-74
2022/11/02 08:13:31;;;;;;;0.10;0.10;;;;;;;11.31;88.28;101858.38;5008233;28;20040;-74
2022/11/02 08:15:56;;;;;;;0.10;0.10;;;;;;;11.25;87.97;101859.66;4984356;28;20038;-75
2022/11/02 08:18:26;;;;;;;0.10;0.10;;;;;;;11.49;88.65;101890.44;5007939;28;20040;-78
2022/11/02 08:20:51;;;;;;;0.10;0.10;;;;;;;11.69;87.00;101878.34;5000024;28;20445;-75
2022/11/02 08:23:18;;;;;;;0.08;0.08;;;;;;;11.80;86.24;101877.63;5002603;28;20038;-76
2022/11/02 08:25:44;;;;;;;0.10;0.10;;;;;;;11.75;86.26;101864.50;5008323;28;20036;-75
2022/11/02 08:28:15;;;;;;;0.10;0.10;;;;;;;11.71;87.22;101865.66;5005048;28;20794;-75
2022/11/02 08:30:41;;;;;;;0.10;0.10;;;;;;;11.84;86.82;101863.00;4999904;28;20017;-76
2022/11/02 08:33:10;;;;;;;0.10;0.10;;;;;;;11.82;87.39;101887.34;5009070;28;20048;-74
2022/11/02 08:35:36;;;;;;;0.10;0.10;;;;;;;11.69;86.90;101871.16;5024566;28;20033;-75
2022/11/02 08:38:02;;;;;;;0.10;0.10;;;;;;;11.99;86.75;101896.13;5019890;28;20044;-73
2022/11/02 08:40:28;;;;;;;0.10;0.10;;;;;;;11.91;87.05;101868.88;5003198;28;20113;-77
2022/11/02 08:43:01;;;;;;;0.10;0.10;;;;;;;11.67;87.34;101840.81;5005828;28;20021;-76
2022/11/02 08:45:28;;;;;;;0.10;0.10;;;;;;;12.00;86.25;101898.75;5008095;28;20044;-76
2022/11/02 08:47:53;;;;;;;0.10;0.10;;;;;;;12.26;86.80;101914.97;5004681;28;20069;-75
2022/11/02 08:50:19;;;;;;;0.00;0.00;;;;;;;12.38;86.42;101904.31;4991356;28;20099;-74
2022/11/02 08:52:44;;;;;;;0.10;0.10;;;;;;;12.30;83.88;101899.47;5027079;28;20041;-73
2022/11/02 08:55:10;;;;;;;0.10;0.10;;;;;;;12.35;84.57;101918.84;5008917;28;20040;-75
2022/11/02 08:57:48;;;;;;;0.10;0.10;;;;;;;12.53;85.07;101919.44;5007133;28;20076;-75
2022/11/02 09:00:14;;;;;;;0.10;0.10;;;;;;;12.44;84.92;101893.13;5020072;28;20026;-73
2022/11/02 09:02:40;;;;;;;0.10;0.10;;;;;;;12.63;83.46;101900.78;5002136;28;20116;-74
2022/11/02 09:05:05;;;;;;;0.10;0.10;;;;;;;12.78;82.48;101912.34;5025311;28;20404;-75
2022/11/02 09:07:30;;;;;;;0.10;0.10;;;;;;;12.95;82.19;101916.53;5023839;28;20040;-75
2022/11/02 09:09:56;;;;;;;0.10;0.10;;;;;;;12.96;82.31;101914.69;5020799;28;20519;-74
2022/11/02 09:12:21;;;;;;;0.10;0.10;;;;;;;12.85;82.14;101907.38;5005149;28;20575;-78
2022/11/02 09:14:46;;;;;;;0.10;0.10;;;;;;;13.00;79.51;101926.97;5012795;28;20033;-76
2022/11/02 09:17:12;;;;;;;0.10;0.10;;;;;;;13.14;80.63;101918.75;5007624;28;20045;-75
2022/11/02 09:19:37;;;;;;;0.10;0.10;;;;;;;13.25;79.10;101895.56;5019113;28;20063;-78
2022/11/02 09:22:02;;;;;;;0.10;0.10;;;;;;;13.89;78.66;101916.97;5008426;28;20053;-73
2022/11/02 09:24:28;;;;;;;0.10;0.10;;;;;;;13.96;76.59;101911.97;4995432;28;20157;-73
2022/11/02 09:26:53;;;;;;;0.10;0.10;;;;;;;13.61;75.88;101904.69;4987601;28;20400;-76
2022/11/02 09:29:18;;;;;;;0.10;0.10;;;;;;;13.89;74.40;101924.22;5008742;28;20578;-75
2022/11/02 09:31:43;;;;;;;0.10;0.10;;;;;;;13.85;75.65;101939.75;5001212;28;20116;-73
2022/11/02 09:34:09;;;;;;;0.10;0.10;;;;;;;13.83;74.65;101924.66;5023515;28;20119;-75
2022/11/02 09:36:34;;;;;;;0.10;0.10;;;;;;;13.88;72.95;101912.53;5015320;28;20029;-74
2022/11/02 09:39:00;;;;;;;0.10;0.10;;;;;;;14.30;71.71;101930.16;4995230;28;20033;-76
2022/11/02 09:41:29;;;;;;;0.10;0.10;;;;;;;14.49;70.41;101913.38;5001500;28;20440;-77
2022/11/02 09:44:01;;;;;;;0.10;0.10;;;;;;;14.46;71.90;101909.06;5021467;28;20116;-75
2022/11/02 09:46:36;;;;;;;0.00;0.00;;;;;;;14.58;70.36;101938.81;5023137;28;20026;-74
2022/11/02 09:49:14;;;;;;;0.10;0.10;;;;;;;14.72;68.72;101929.66;5021921;28;20033;-74
2022/11/02 09:51:43;;;;;;;0.10;0.10;;;;;;;14.37;69.69;101953.00;4996562;28;20021;-75
2022/11/02 09:54:14;;;;;;;0.10;0.10;;;;;;;14.31;69.13;101959.75;5006391;28;20053;-75
2022/11/02 09:56:40;;;;;;;0.10;0.10;;;;;;;14.31;71.27;101961.56;5003932;28;20044;-75
2022/11/02 09:59:14;;;;;;;0.10;0.10;;;;;;;14.94;69.30;101955.88;5006282;28;20029;-74
2022/11/02 10:01:54;;;;;;;0.10;0.10;;;;;;;15.51;66.09;101955.91;5000091;28;20489;-77
2022/11/02 10:04:36;;;;;;;0.10;0.10;;;;;;;15.75;62.75;101967.41;5024921;28;20037;-77
2022/11/02 10:07:09;;;;;;;0.10;0.10;;;;;;;15.86;63.77;101971.97;5024318;28;20218;-77
2022/11/02 10:09:44;;;;;;;0.10;0.10;;;;;;;16.00;62.67;101954.59;4990006;28;20091;-76
2022/11/02 10:12:29;;;;;;;0.10;0.10;;;;;;;15.80;63.09;101966.19;5003891;28;20033;-75
2022/11/02 10:15:02;;;;;;;0.00;0.00;;;;;;;16.52;61.82;101977.44;5000806;28;20043;-74
2022/11/02 10:17:33;;;;;;;0.10;0.10;;;;;;;16.12;61.22;101962.69;5019531;28;20045;-78
2022/11/02 10:20:04;;;;;;;0.10;0.10;;;;;;;16.45;58.15;101991.50;5005816;28;20079;-77
2022/11/02 10:22:36;;;;;;;0.10;0.10;;;;;;;16.06;61.17;101996.53;5003581;28;20041;-76
2022/11/02 10:25:06;;;;;;;0.10;0.10;;;;;;;16.09;60.71;101988.16;5021620;28;20404;-76
2022/11/02 10:27:37;;;;;;;0.10;0.10;;;;;;;15.77;59.51;101986.22;5020578;28;20025;-75
2022/11/02 10:30:14;;;;;;;0.10;0.10;;;;;;;15.06;63.01;101986.50;5016873;28;20052;-76
2022/11/02 10:32:41;;;;;;;0.10;0.10;;;;;;;15.67;63.50;102007.78;5003131;28;20075;-74
2022/11/02 10:35:28;;;;;;;0.00;0.00;;;;;;;15.85;62.67;102005.44;5007707;28;20094;-75
2022/11/02 10:38:00;;;;;;;0.10;0.10;;;;;;;15.36;64.48;101987.75;5020991;28;20029;-73
2022/11/02 10:40:39;;;;;;;0.10;0.10;;;;;;;15.40;64.58;101992.78;5017836;28;20416;-75
2022/11/02 10:43:17;;;;;;;0.10;0.10;;;;;;;15.87;64.44;102011.63;4994492;28;20096;-75
2022/11/02 10:45:51;;;;;;;0.10;0.10;;;;;;;16.23;59.26;101987.00;5022632;28;20298;-77
2022/11/02 10:48:27;;;;;;;0.10;0.10;;;;;;;17.29;56.80;101997.03;4990211;28;20040;-76
2022/11/02 10:51:09;;;;;;;0.00;0.00;;;;;;;17.96;54.71;102002.84;5004936;28;20591;-76
2022/11/02 10:53:43;;;;;;;0.10;0.10;;;;;;;17.86;53.45;101989.25;5003970;28;20127;-76
2022/11/02 10:56:08;;;;;;;;;;;;;;;17.99;53.63;102006.16;5008905;28;20036;-75
2022/11/02 10:58:35;;;;;;;0.10;0.10;;;;;;;17.97;53.99;101986.41;5019561;28;19917;-76
2022/11/02 11:01:19;;;;;;;0.10;0.10;;;;;;;19.39;49.45;101979.56;4996901;28;20537;-75
2022/11/02 11:03:53;;;;;;;0.10;0.10;;;;;;;19.58;49.36;102030.38;4998682;28;20136;-78
2022/11/02 11:06:19;;;;;;;0.10;0.10;;;;;;;18.85;50.32;101990.13;5006842;28;20033;-75
2022/11/02 11:08:48;;;;;;;0.10;0.10;;;;;;;19.09;49.85;102018.75;5002241;28;20052;-77
2022/11/02 11:11:13;;;;;;;0.10;0.10;;;;;;;17.16;52.47;102025.28;5009056;28;20025;-73
2022/11/02 11:13:41;;;;;;;0.10;0.10;;;;;;;18.41;51.45;102018.66;5023864;28;20801;-78
2022/11/02 11:16:06;;;;;;;0.10;0.10;;;;;;;18.08;51.86;102009.06;5011348;28;20033;-78
2022/11/02 11:18:32;;;;;;;0.10;0.10;;;;;;;18.12;51.59;102003.19;4989137;28;20040;-74
2022/11/02 11:20:58;;;;;;;0.10;0.10;;;;;;;18.64;50.90;102022.97;4989528;28;20036;-77
2022/11/02 11:23:24;;;;;;;0.10;0.10;;;;;;;19.12;49.11;102000.28;5016719;28;20033;-76
2022/11/02 11:25:58;;;;;;;0.10;0.10;;;;;;;19.59;45.85;102003.97;5001944;28;20461;-74
2022/11/02 11:28:25;;;;;;;0.10;0.10;;;;;;;20.20;46.48;102015.25;5004443;28;20148;-73
2022/11/02 11:31:08;;;;;;;0.05;0.05;;;;;;;21.32;43.44;102012.06;5004644;28;20492;-73
2022/11/02 11:33:42;;;;;;;0.10;0.10;;;;;;;21.30;40.78;101967.69;5000784;28;20386;-74
2022/11/02 11:36:08;;;;;;;;;;;;;;;21.08;42.19;102017.22;4998573;28;20037;-77
2022/11/02 11:38:33;;;;;;;0.10;0.10;;;;;;;21.99;41.77;102005.88;5002063;28;20328;-73
2022/11/02 11:40:59;;;;;;;0.10;0.10;;;;;;;22.93;40.36;101994.63;5007402;28;20128;-75
2022/11/02 11:43:27;;;;;;;0.10;0.10;;;;;;;24.09;38.88;101996.97;5000779;28;20032;-75
2022/11/02 11:45:58;;;;;;;0.00;0.00;;;;;;;22.06;40.46;101976.84;5012776;28;20036;-73